Time;durP1;ratioP1;P1;durP2;ratioP2;P2;SDS_P1;SDS_P2;PMS_P1;PMS_P2;Temp;Humidity;BMP_temperature;BMP_pressure;BME280_temperature;BME280_humidity;BME280_pressure;Samples;Min_cycle;Max_cycle;Signal;HPM_P1;HPM_P2
2021/03/09 00:02:39;;;;;;;25.92;15.07;;;;;;;6.29;100.00;101342.47;4900110;29;20056;-73
2021/03/09 00:05:25;;;;;;;27.13;16.42;;;;;;;5.78;100.00;101341.91;4899730;29;20509;-74
2021/03/09 00:08:13;;;;;;;26.20;15.48;;;;;;;5.16;100.00;101356.66;4888445;29;20386;-73
2021/03/09 00:10:58;;;;;;;28.75;16.90;;;;;;;5.46;100.00;101343.22;4888434;29;20048;-73
2021/03/09 00:13:44;;;;;;;32.40;16.52;;;;;;;5.52;100.00;101356.28;4902756;29;20029;-73
2021/03/09 00:16:30;;;;;;;58.45;27.52;;;;;;;5.61;100.00;101353.78;4902091;29;20029;-73
2021/03/09 00:19:15;;;;;;;38.80;20.45;;;;;;;5.21;100.00;101342.00;4901853;29;20036;-74
2021/03/09 00:22:01;;;;;;;46.05;24.15;;;;;;;5.50;100.00;101345.00;4902198;29;20096;-73
2021/03/09 00:24:47;;;;;;;57.38;27.33;;;;;;;5.08;100.00;101353.09;4901588;29;20039;-74
2021/03/09 00:27:33;;;;;;;41.63;23.08;;;;;;;5.29;100.00;101355.97;4902042;29;20107;-73
2021/03/09 00:30:20;;;;;;;40.50;22.30;;;;;;;5.10;100.00;101360.03;4888449;29;20064;-73
2021/03/09 00:33:05;;;;;;;46.65;24.63;;;;;;;4.81;100.00;101360.44;4901637;29;20033;-73
2021/03/09 00:35:51;;;;;;;47.70;24.13;;;;;;;4.72;100.00;101358.59;4901253;29;20033;-73
2021/03/09 00:38:37;;;;;;;40.33;21.67;;;;;;;5.04;100.00;101359.09;4903187;29;20443;-73
2021/03/09 00:41:22;;;;;;;45.95;22.73;;;;;;;4.71;100.00;101372.38;4889143;29;20039;-73
2021/03/09 00:44:08;;;;;;;41.22;22.50;;;;;;;4.86;100.00;101377.84;4901570;29;20377;-74
2021/03/09 00:46:54;;;;;;;46.72;24.52;;;;;;;5.01;100.00;101375.50;4902038;29;20024;-73
2021/03/09 00:49:40;;;;;;;47.80;24.38;;;;;;;4.93;100.00;101387.47;4900898;29;20454;-72
2021/03/09 00:52:25;;;;;;;53.28;24.55;;;;;;;4.89;100.00;101385.69;4888770;29;20389;-73
2021/03/09 00:55:12;;;;;;;56.33;27.13;;;;;;;4.56;100.00;101392.91;4902647;29;20120;-73
2021/03/09 00:57:59;;;;;;;63.65;28.83;;;;;;;4.87;100.00;101389.09;4901587;29;20029;-74
2021/03/09 01:00:44;;;;;;;37.45;21.25;;;;;;;4.98;100.00;101384.94;4900688;29;20033;-73
2021/03/09 01:03:30;;;;;;;37.85;20.55;;;;;;;4.45;100.00;101390.97;4900919;29;20053;-73
2021/03/09 01:06:16;;;;;;;49.75;23.67;;;;;;;4.51;100.00;101386.75;4901603;29;20033;-74
2021/03/09 01:09:03;;;;;;;52.65;24.08;;;;;;;4.49;100.00;101387.56;4901662;29;20029;-72
2021/03/09 01:11:49;;;;;;;38.42;20.00;;;;;;;4.54;100.00;101384.22;4902180;29;20047;-73
2021/03/09 01:14:34;;;;;;;53.03;23.23;;;;;;;4.79;100.00;101377.72;4887843;29;20068;-72
2021/03/09 01:17:20;;;;;;;63.90;27.73;;;;;;;4.57;100.00;101376.50;4900321;29;20036;-72
2021/03/09 01:20:08;;;;;;;36.30;19.42;;;;;;;4.22;100.00;101377.59;4887423;29;20036;-73
2021/03/09 01:22:54;;;;;;;61.60;25.63;;;;;;;4.67;100.00;101367.16;4901403;29;20442;-73
2021/03/09 01:25:40;;;;;;;52.90;23.38;;;;;;;4.22;100.00;101361.16;4900804;29;20036;-73
2021/03/09 01:28:26;;;;;;;49.50;23.17;;;;;;;4.28;100.00;101364.75;4888354;29;20043;-73
2021/03/09 01:31:12;;;;;;;47.42;22.55;;;;;;;3.92;100.00;101357.97;4887655;29;20453;-73
2021/03/09 01:33:58;;;;;;;48.33;24.15;;;;;;;4.00;100.00;101364.19;4888372;29;20039;-73
2021/03/09 01:36:43;;;;;;;44.25;22.45;;;;;;;3.94;100.00;101369.28;4900314;29;20068;-73
2021/03/09 01:39:29;;;;;;;50.53;24.90;;;;;;;3.86;100.00;101371.69;4887595;29;20029;-73
2021/03/09 02:22:39;;;;;;;28.13;13.68;;;;;;;3.93;100.00;101398.59;5420302;23;19923;-73
2021/03/09 02:25:31;;;;;;;22.52;13.38;;;;;;;3.98;100.00;101408.22;4905488;29;20051;-74
2021/03/09 02:28:42;;;;;;;28.60;13.48;;;;;;;3.77;100.00;101412.97;4906405;29;20035;-73
2021/03/09 02:31:30;;;;;;;23.95;14.38;;;;;;;3.80;100.00;101419.94;4905056;29;20042;-73
2021/03/09 02:34:24;;;;;;;25.55;14.27;;;;;;;4.01;100.00;101416.06;4918244;29;20028;-73
2021/03/09 02:37:13;;;;;;;24.95;13.73;;;;;;;4.19;100.00;101425.94;4919318;29;20365;-72
2021/03/09 02:39:59;;;;;;;22.65;13.10;;;;;;;3.70;100.00;101434.41;4918353;29;20039;-74
2021/03/09 02:42:50;;;;;;;22.83;12.68;;;;;;;3.48;100.00;101445.16;4918428;29;20043;-73
2021/03/09 02:45:37;;;;;;;21.17;12.20;;;;;;;3.37;100.00;101438.84;4918425;29;20050;-74
2021/03/09 02:48:26;;;;;;;25.00;12.57;;;;;;;3.71;100.00;101441.38;4905418;29;20107;-75
2021/03/09 02:51:13;;;;;;;24.98;12.38;;;;;;;3.82;100.00;101449.38;4905764;29;20361;-73
2021/03/09 02:54:02;;;;;;;20.08;11.50;;;;;;;3.71;100.00;101451.72;4917794;29;20028;-73
2021/03/09 02:56:49;;;;;;;21.88;11.50;;;;;;;3.82;100.00;101451.97;4905720;29;20043;-73
2021/03/09 02:59:37;;;;;;;21.40;10.80;;;;;;;3.71;100.00;101458.63;4919245;29;20103;-73
2021/03/09 03:02:24;;;;;;;21.83;10.60;;;;;;;3.23;100.00;101457.50;4918256;29;20035;-73
2021/03/09 03:05:11;;;;;;;21.25;10.40;;;;;;;3.03;100.00;101459.63;4907238;29;20032;-74
2021/03/09 03:07:57;;;;;;;20.70;10.20;;;;;;;2.69;100.00;101457.00;4906793;29;20034;-73
2021/03/09 03:10:45;;;;;;;15.68;9.45;;;;;;;3.06;100.00;101459.69;4920856;29;20091;-73
2021/03/09 03:13:33;;;;;;;17.45;9.70;;;;;;;3.03;100.00;101466.50;4918865;29;20043;-74
2021/03/09 03:16:20;;;;;;;15.73;8.77;;;;;;;2.87;100.00;101467.84;4918738;29;20062;-73
2021/03/09 03:19:08;;;;;;;14.07;8.52;;;;;;;2.68;100.00;101465.63;4918534;29;20032;-73
2021/03/09 03:21:54;;;;;;;14.93;8.35;;;;;;;2.64;100.00;101470.66;4918823;29;20056;-74
2021/03/09 03:24:40;;;;;;;13.38;7.55;;;;;;;2.70;100.00;101469.09;4918233;29;20047;-74
2021/03/09 03:27:26;;;;;;;14.48;7.97;;;;;;;2.56;100.00;101467.88;4918683;29;20028;-73
2021/03/09 03:30:14;;;;;;;16.33;8.10;;;;;;;2.56;100.00;101472.16;4917989;29;20059;-73
2021/03/09 03:33:00;;;;;;;15.15;7.80;;;;;;;2.84;100.00;101491.06;4918598;29;20495;-73
2021/03/09 03:35:46;;;;;;;12.65;7.28;;;;;;;2.87;100.00;101493.72;4918964;29;20030;-74
2021/03/09 03:38:37;;;;;;;13.65;7.32;;;;;;;2.68;100.00;101504.41;4905199;29;20451;-73
2021/03/09 03:41:23;;;;;;;11.85;7.35;;;;;;;2.89;100.00;101502.38;4918585;29;20024;-73
2021/03/09 03:44:09;;;;;;;17.42;7.80;;;;;;;2.95;100.00;101514.63;4917232;29;20035;-73
2021/03/09 03:46:54;;;;;;;16.23;8.38;;;;;;;2.71;100.00;101524.31;4917032;29;20043;-73
2021/03/09 03:49:40;;;;;;;12.63;7.60;;;;;;;2.67;100.00;101525.06;4918441;29;20119;-73
2021/03/09 03:52:47;;;;;;;11.05;7.38;;;;;;;2.51;100.00;101528.06;4918588;29;20377;-73
2021/03/09 03:56:11;;;;;;;14.75;8.13;;;;;;;2.54;100.00;101538.50;4917952;29;20091;-74
2021/03/09 03:59:11;;;;;;;12.10;7.45;;;;;;;2.31;100.00;101539.56;4917324;29;20044;-74
2021/03/09 04:02:03;;;;;;;12.65;7.13;;;;;;;2.58;100.00;101546.38;4905019;29;20032;-73
2021/03/09 04:04:50;;;;;;;13.10;7.63;;;;;;;3.07;100.00;101546.88;4918857;29;20485;-73
2021/03/09 04:07:36;;;;;;;15.20;7.72;;;;;;;2.41;100.00;101551.94;4917794;29;20036;-73
2021/03/09 04:10:23;;;;;;;12.93;7.07;;;;;;;2.56;100.00;101555.81;4918123;29;20036;-76
2021/03/09 04:13:09;;;;;;;14.10;7.35;;;;;;;2.38;100.00;101552.72;4917776;29;20498;-73
2021/03/09 04:15:56;;;;;;;13.57;7.32;;;;;;;2.43;100.00;101551.16;4918538;29;20039;-73
2021/03/09 04:18:44;;;;;;;13.18;7.70;;;;;;;2.36;100.00;101566.41;4917629;29;20457;-74
2021/03/09 04:21:31;;;;;;;14.35;7.43;;;;;;;2.55;100.00;101567.00;4918388;29;20478;-74
2021/03/09 04:24:18;;;;;;;12.73;7.82;;;;;;;2.62;100.00;101568.91;4917515;29;20039;-74
2021/03/09 04:27:04;;;;;;;12.90;7.53;;;;;;;2.39;100.00;101563.94;4918086;29;20032;-73
2021/03/09 04:29:52;;;;;;;15.20;8.50;;;;;;;2.88;100.00;101567.94;4917494;29;20032;-74
2021/03/09 04:32:38;;;;;;;17.23;8.77;;;;;;;2.25;100.00;101571.28;4918029;29;20036;-73
2021/03/09 04:35:24;;;;;;;15.48;8.30;;;;;;;2.46;100.00;101573.63;4917783;29;20047;-74
2021/03/09 04:38:10;;;;;;;13.25;8.60;;;;;;;2.65;100.00;101574.19;4918238;29;20040;-73
2021/03/09 04:40:57;;;;;;;18.20;8.88;;;;;;;2.70;100.00;101572.59;4918436;29;20155;-73
2021/03/09 04:43:43;;;;;;;18.85;9.45;;;;;;;2.86;100.00;101577.34;4917452;29;20036;-74
2021/03/09 04:46:29;;;;;;;16.05;9.52;;;;;;;2.64;100.00;101581.88;4917746;29;20024;-73
2021/03/09 04:49:16;;;;;;;22.55;11.40;;;;;;;2.85;100.00;101577.34;4917445;29;20021;-73
2021/03/09 04:52:03;;;;;;;18.30;10.18;;;;;;;2.88;100.00;101575.69;4916774;29;20020;-74
2021/03/09 04:54:49;;;;;;;21.42;11.23;;;;;;;2.77;100.00;101574.50;4917841;29;20529;-73
2021/03/09 04:57:39;;;;;;;18.98;10.55;;;;;;;2.72;100.00;101581.28;4921102;29;20098;-73
2021/03/09 05:00:26;;;;;;;20.55;9.93;;;;;;;2.67;100.00;101574.22;4918813;29;20028;-73
2021/03/09 05:03:11;;;;;;;19.50;10.52;;;;;;;2.88;100.00;101582.56;4907505;29;20032;-73
2021/03/09 05:05:58;;;;;;;21.17;10.32;;;;;;;2.62;100.00;101584.44;4906733;29;20032;-73
2021/03/09 05:08:43;;;;;;;25.58;10.50;;;;;;;2.76;100.00;101582.22;4919893;29;20566;-74
2021/03/09 05:11:29;;;;;;;16.05;9.43;;;;;;;2.59;100.00;101584.38;4920055;29;20450;-73
2021/03/09 05:14:15;;;;;;;17.45;9.45;;;;;;;2.64;100.00;101600.88;4921308;29;20024;-73
2021/03/09 05:17:01;;;;;;;18.40;9.80;;;;;;;1.77;100.00;101587.03;4920742;29;20487;-74
2021/03/09 05:19:47;;;;;;;15.20;8.68;;;;;;;2.48;100.00;101587.47;4906677;29;20140;-73
2021/03/09 05:22:33;;;;;;;16.88;9.25;;;;;;;2.28;100.00;101580.84;4920380;29;20063;-73
2021/03/09 05:25:19;;;;;;;16.20;9.50;;;;;;;1.95;100.00;101593.63;4920457;29;20027;-73
2021/03/09 05:28:05;;;;;;;19.42;9.85;;;;;;;2.06;100.00;101588.78;4920928;29;20031;-74
2021/03/09 05:30:50;;;;;;;21.67;11.40;;;;;;;1.71;100.00;101590.28;4920224;29;20024;-74
2021/03/09 05:33:36;;;;;;;21.15;11.32;;;;;;;2.24;100.00;101595.38;4920895;29;20028;-73
2021/03/09 05:36:22;;;;;;;22.02;10.82;;;;;;;2.41;100.00;101596.75;4918607;29;20038;-73
2021/03/09 05:39:08;;;;;;;29.25;14.73;;;;;;;2.17;100.00;101601.19;4907374;29;20032;-74
2021/03/09 05:41:54;;;;;;;20.05;11.43;;;;;;;1.98;100.00;101610.94;4918810;29;20040;-74
2021/03/09 05:44:40;;;;;;;19.70;11.38;;;;;;;2.07;100.00;101614.69;4906738;29;20119;-73
2021/03/09 05:47:26;;;;;;;20.30;11.35;;;;;;;2.46;100.00;101621.06;4919865;29;20052;-73
2021/03/09 05:50:13;;;;;;;23.48;12.18;;;;;;;2.95;100.00;101625.91;4906093;29;20079;-73
2021/03/09 05:52:59;;;;;;;17.35;10.13;;;;;;;2.93;100.00;101628.44;4905606;29;20024;-73
2021/03/09 05:55:44;;;;;;;16.08;8.95;;;;;;;2.98;100.00;101634.63;4919847;29;20082;-74
2021/03/09 05:58:31;;;;;;;19.70;9.93;;;;;;;2.90;100.00;101630.94;4919598;29;20032;-73
2021/03/09 06:01:17;;;;;;;15.93;9.27;;;;;;;2.99;100.00;101636.38;4919756;29;20051;-73
2021/03/09 06:04:03;;;;;;;15.60;9.25;;;;;;;3.05;100.00;101640.88;4920599;29;20032;-73
2021/03/09 06:06:49;;;;;;;16.15;7.95;;;;;;;2.83;100.00;101641.97;4893381;29;20032;-73
2021/03/09 06:09:42;;;;;;;15.38;7.88;;;;;;;2.72;100.00;101642.47;4919510;29;20399;-73
2021/03/09 06:12:28;;;;;;;15.77;7.30;;;;;;;3.05;100.00;101659.84;4906223;29;20359;-72
2021/03/09 06:15:14;;;;;;;23.60;8.23;;;;;;;3.07;100.00;101655.59;4919730;29;20028;-73
2021/03/09 06:18:00;;;;;;;16.48;8.13;;;;;;;2.96;100.00;101661.28;4919201;29;20138;-73
2021/03/09 06:20:46;;;;;;;13.85;7.57;;;;;;;3.19;100.00;101657.63;4919889;29;20110;-73
2021/03/09 06:23:32;;;;;;;13.77;7.15;;;;;;;2.85;100.00;101671.34;4905041;29;20050;-74
2021/03/09 06:26:38;;;;;;;16.00;6.85;;;;;;;3.05;100.00;101666.75;4920252;29;20036;-74
2021/03/09 06:29:24;;;;;;;11.95;6.93;;;;;;;2.69;100.00;101661.38;4919191;29;20059;-74
2021/03/09 06:32:10;;;;;;;12.18;7.40;;;;;;;2.47;100.00;101655.53;4919121;29;20115;-74
2021/03/09 06:34:56;;;;;;;15.45;7.25;;;;;;;2.90;100.00;101661.13;4904614;29;20038;-73
2021/03/09 06:37:41;;;;;;;15.70;6.65;;;;;;;2.81;100.00;101671.22;4918053;29;20055;-73
2021/03/09 06:40:27;;;;;;;14.38;5.75;;;;;;;3.13;100.00;101663.50;4919175;29;20024;-74
2021/03/09 06:43:22;;;;;;;11.27;5.68;;;;;;;3.53;100.00;101675.81;4918694;29;20039;-74
2021/03/09 06:46:22;;;;;;;9.55;5.78;;;;;;;3.50;100.00;101675.75;4906145;29;20032;-74
2021/03/09 06:49:08;;;;;;;16.02;5.80;;;;;;;3.41;100.00;101681.53;4918766;29;20056;-73
2021/03/09 06:51:54;;;;;;;9.77;6.07;;;;;;;3.17;100.00;101677.44;4919071;29;20028;-73
2021/03/09 06:54:51;;;;;;;8.73;5.40;;;;;;;3.26;100.00;101686.31;4905734;29;20516;-73
2021/03/09 06:57:38;;;;;;;9.38;5.30;;;;;;;3.61;100.00;101677.75;4919783;29;20046;-73
2021/03/09 07:00:26;;;;;;;9.13;4.57;;;;;;;3.48;100.00;101687.75;4918460;29;20460;-73
2021/03/09 07:03:32;;;;;;;10.10;4.85;;;;;;;3.38;100.00;101688.38;4919269;29;20036;-73
2021/03/09 07:06:21;;;;;;;11.70;5.38;;;;;;;3.20;100.00;101686.16;4918516;29;20059;-73
2021/03/09 07:09:10;;;;;;;9.70;5.78;;;;;;;3.40;100.00;101679.81;4919046;29;20524;-74
2021/03/09 07:11:57;;;;;;;8.70;5.35;;;;;;;3.67;100.00;101679.63;4918424;29;20369;-73
2021/03/09 07:14:44;;;;;;;10.80;5.75;;;;;;;3.70;100.00;101680.59;4919413;29;20107;-73
2021/03/09 07:17:32;;;;;;;9.50;5.55;;;;;;;4.11;100.00;101687.66;4918074;29;20028;-73
2021/03/09 07:20:18;;;;;;;10.13;5.32;;;;;;;4.44;100.00;101687.56;4918054;29;20031;-73
2021/03/09 07:23:05;;;;;;;17.42;5.45;;;;;;;4.05;100.00;101686.63;4918424;29;20480;-72
2021/03/09 07:25:57;;;;;;;9.90;5.88;;;;;;;3.84;100.00;101681.81;4918017;29;20454;-73
2021/03/09 07:28:50;;;;;;;8.77;5.28;;;;;;;3.98;100.00;101692.53;4918278;29;20117;-74
2021/03/09 07:31:39;;;;;;;11.65;6.78;;;;;;;4.03;100.00;101684.00;4918465;29;20032;-74
2021/03/09 07:34:27;;;;;;;19.35;7.32;;;;;;;4.71;100.00;101686.44;4918462;29;20087;-74
2021/03/09 07:37:16;;;;;;;10.90;6.35;;;;;;;4.15;100.00;101680.84;4918019;29;20032;-73
2021/03/09 07:40:04;;;;;;;10.75;5.90;;;;;;;4.52;100.00;101679.13;4918285;29;20079;-74
2021/03/09 07:42:50;;;;;;;19.58;6.95;;;;;;;4.83;100.00;101671.13;4918568;29;20051;-74
2021/03/09 07:45:37;;;;;;;11.45;6.15;;;;;;;4.76;100.00;101669.28;4918468;29;20098;-74
2021/03/09 07:48:23;;;;;;;14.43;6.78;;;;;;;4.80;100.00;101678.88;4917709;29;20036;-74
2021/03/09 07:51:09;;;;;;;9.40;5.63;;;;;;;4.97;100.00;101667.13;4904792;29;20059;-74
2021/03/09 07:54:08;;;;;;;21.92;8.30;;;;;;;4.49;100.00;101665.19;4918218;29;20028;-72
2021/03/09 07:57:16;;;;;;;19.80;6.88;;;;;;;4.67;100.00;101658.66;4905054;29;20038;-74
2021/03/09 08:00:12;;;;;;;18.42;7.20;;;;;;;4.84;100.00;101659.03;4916683;29;20028;-74
2021/03/09 08:02:58;;;;;;;8.68;5.10;;;;;;;5.16;100.00;101655.34;4917851;29;20059;-73
2021/03/09 08:05:49;;;;;;;14.30;6.40;;;;;;;5.23;100.00;101655.50;4918693;29;20072;-74
2021/03/09 08:08:44;;;;;;;11.10;5.90;;;;;;;5.39;100.00;101659.28;4917730;29;20044;-74
2021/03/09 08:11:30;;;;;;;17.50;5.82;;;;;;;5.74;100.00;101667.69;4917430;29;20043;-73
2021/03/09 08:14:16;;;;;;;12.45;5.38;;;;;;;6.00;100.00;101663.81;4916592;29;20084;-74
2021/03/09 08:17:30;;;;;;;8.98;4.68;;;;;;;6.09;100.00;101667.44;4903829;29;20039;-74
2021/03/09 08:21:05;;;;;;;11.35;5.68;;;;;;;6.03;100.00;101664.72;4904072;29;20032;-73
2021/03/09 08:23:54;;;;;;;11.18;6.45;;;;;;;6.53;100.00;101660.28;4903678;29;20056;-73
2021/03/09 08:26:40;;;;;;;9.57;5.40;;;;;;;7.06;100.00;101656.63;4917821;29;20470;-74
2021/03/09 08:29:28;;;;;;;12.73;6.78;;;;;;;7.42;100.00;101660.50;4905473;29;20028;-73
2021/03/09 08:32:23;;;;;;;10.00;5.38;;;;;;;7.59;100.00;101652.88;4921055;29;20501;-74
2021/03/09 08:35:11;;;;;;;7.00;4.82;;;;;;;7.53;100.00;101661.50;4907800;29;20417;-74
2021/03/09 08:38:10;;;;;;;6.50;4.90;;;;;;;6.99;100.00;101657.44;4907014;29;20059;-73
2021/03/09 08:41:04;;;;;;;9.70;5.75;;;;;;;6.89;100.00;101656.44;4921337;29;20091;-74
2021/03/09 08:44:12;;;;;;;9.50;5.25;;;;;;;7.51;100.00;101658.00;4920730;29;20047;-73
2021/03/09 08:47:06;;;;;;;9.68;5.93;;;;;;;7.95;100.00;101658.38;4922224;29;20063;-74
2021/03/09 08:49:52;;;;;;;8.27;5.07;;;;;;;7.32;99.64;101661.25;4920575;29;20512;-74
2021/03/09 08:52:40;;;;;;;13.77;5.97;;;;;;;6.84;100.00;101660.72;4921687;29;20496;-74
2021/03/09 08:55:26;;;;;;;12.38;6.40;;;;;;;7.85;100.00;101657.44;4920822;29;20477;-74
2021/03/09 08:58:11;;;;;;;10.68;6.47;;;;;;;7.29;100.00;101656.03;4921295;29;20114;-73
2021/03/09 09:00:58;;;;;;;10.43;6.20;;;;;;;7.06;100.00;101654.91;4920687;29;20034;-74
2021/03/09 09:03:44;;;;;;;10.85;5.88;;;;;;;7.10;100.00;101661.00;4920839;29;20124;-73
2021/03/09 09:06:30;;;;;;;11.80;6.03;;;;;;;7.36;100.00;101656.97;4921395;29;20024;-74
2021/03/09 09:09:34;;;;;;;13.57;5.60;;;;;;;7.93;99.56;101657.50;4922661;29;20039;-74
2021/03/09 09:12:33;;;;;;;17.13;6.60;;;;;;;7.78;100.00;101658.25;4922981;29;20040;-73
2021/03/09 09:15:32;;;;;;;12.05;6.40;;;;;;;8.08;97.17;101668.06;4910981;29;20487;-74
2021/03/09 09:18:20;;;;;;;14.98;8.07;;;;;;;8.40;96.84;101661.38;4920443;29;20132;-74
2021/03/09 09:21:06;;;;;;;12.02;6.75;;;;;;;8.35;95.18;101665.66;4920506;29;20035;-74
2021/03/09 09:23:52;;;;;;;38.03;8.60;;;;;;;8.53;95.62;101666.66;4920443;29;20028;-74
2021/03/09 09:26:37;;;;;;;13.63;7.40;;;;;;;8.41;93.41;101660.50;4906227;29;20059;-74
2021/03/09 09:29:24;;;;;;;18.35;8.25;;;;;;;8.97;94.20;101661.66;4906606;29;20370;-75
2021/03/09 09:32:09;;;;;;;15.05;8.15;;;;;;;8.88;93.93;101667.72;4920040;29;20064;-75
2021/03/09 09:34:59;;;;;;;14.57;9.38;;;;;;;9.78;90.09;101654.88;4919827;29;20489;-75
2021/03/09 09:37:59;;;;;;;22.83;8.65;;;;;;;9.12;90.27;101657.34;4919986;29;20020;-75
2021/03/09 09:40:48;;;;;;;19.58;8.18;;;;;;;9.45;89.03;101656.59;4919949;29;20053;-74
2021/03/09 09:43:35;;;;;;;12.50;6.97;;;;;;;8.63;91.25;101655.41;4920284;29;20028;-73
2021/03/09 09:46:23;;;;;;;11.88;6.35;;;;;;;8.12;94.53;101647.19;4907996;29;20063;-73
2021/03/09 09:49:12;;;;;;;15.18;7.25;;;;;;;8.61;95.14;101659.72;4919895;29;20036;-73
2021/03/09 09:51:58;;;;;;;14.20;7.22;;;;;;;8.80;92.63;101652.91;4920289;29;20032;-73
2021/03/09 09:54:55;;;;;;;10.25;7.13;;;;;;;9.39;90.00;101648.72;4919590;29;20024;-74
2021/03/09 09:57:49;;;;;;;13.27;7.22;;;;;;;8.37;93.04;101656.13;4920016;29;20107;-74
2021/03/09 10:00:39;;;;;;;12.65;7.43;;;;;;;8.89;93.01;101655.53;4920521;29;20024;-74
2021/03/09 10:03:24;;;;;;;12.18;7.80;;;;;;;8.82;93.14;101666.81;4905887;29;20038;-73
2021/03/09 10:06:27;;;;;;;11.85;7.47;;;;;;;8.23;94.40;101668.19;4906270;29;20028;-74
2021/03/09 10:09:19;;;;;;;11.60;8.00;;;;;;;8.77;93.02;101666.78;4919724;29;20025;-73
2021/03/09 10:12:06;;;;;;;19.13;9.77;;;;;;;9.20;90.35;101646.91;4919617;29;20374;-74
2021/03/09 10:14:54;;;;;;;14.15;8.80;;;;;;;8.74;91.86;101645.91;4919854;29;20020;-73
2021/03/09 10:17:40;;;;;;;13.48;8.32;;;;;;;9.34;90.32;101646.09;4920192;29;20459;-74
2021/03/09 10:20:31;;;;;;;17.50;9.80;;;;;;;9.28;88.96;101651.31;4906233;29;20097;-74
2021/03/09 10:23:17;;;;;;;13.98;9.23;;;;;;;8.50;94.36;101651.00;4919987;29;20048;-74
2021/03/09 10:26:03;;;;;;;14.48;9.52;;;;;;;7.86;98.37;101647.88;4905503;29;20043;-74
2021/03/09 10:29:33;;;;;;;14.00;9.20;;;;;;;8.17;98.74;101650.75;4919927;29;20036;-74
2021/03/09 10:32:19;;;;;;;16.77;9.98;;;;;;;8.87;94.66;101646.81;4905330;29;20071;-74
2021/03/09 10:35:06;;;;;;;13.65;9.35;;;;;;;8.74;94.83;101651.13;4905581;29;20095;-73
2021/03/09 10:37:52;;;;;;;15.38;10.30;;;;;;;9.34;93.04;101645.22;4906032;29;20028;-74
2021/03/09 10:40:38;;;;;;;15.88;10.13;;;;;;;9.45;89.99;101641.75;4918541;29;20036;-73
2021/03/09 10:43:45;;;;;;;15.15;9.93;;;;;;;9.91;90.49;101645.28;4918457;29;20455;-74
2021/03/09 10:46:34;;;;;;;18.17;11.32;;;;;;;10.63;87.06;101645.22;4906252;29;20132;-74
2021/03/09 10:49:20;;;;;;;18.58;11.25;;;;;;;10.73;84.24;101641.66;4918403;29;20104;-75
2021/03/09 10:52:06;;;;;;;17.90;10.55;;;;;;;9.79;87.08;101640.03;4916764;29;20123;-75
2021/03/09 10:54:52;;;;;;;18.00;11.40;;;;;;;9.45;89.19;101627.81;4904826;29;20028;-73
2021/03/09 10:57:38;;;;;;;20.83;12.85;;;;;;;9.56;89.76;101626.06;4918502;29;20369;-74
2021/03/09 11:00:24;;;;;;;17.88;11.10;;;;;;;9.46;90.29;101616.47;4904179;29;20092;-73
2021/03/09 11:03:10;;;;;;;17.40;11.45;;;;;;;10.05;87.90;101615.63;4917587;29;20039;-73
2021/03/09 11:05:55;;;;;;;18.70;11.65;;;;;;;9.83;87.32;101606.03;4918131;29;20063;-74
2021/03/09 11:08:41;;;;;;;26.17;13.88;;;;;;;9.51;89.64;101617.34;4917680;29;20028;-73
2021/03/09 11:11:27;;;;;;;18.63;11.73;;;;;;;8.73;93.43;101609.31;4917341;29;20032;-74
2021/03/09 11:14:13;;;;;;;23.17;12.45;;;;;;;9.20;91.94;101600.75;4917504;29;20035;-73
2021/03/09 11:16:59;;;;;;;21.20;12.18;;;;;;;9.26;92.62;101594.66;4918181;29;20028;-74
2021/03/09 11:19:45;;;;;;;21.67;12.50;;;;;;;9.26;94.05;101603.38;4904724;29;20032;-74
2021/03/09 11:22:31;;;;;;;20.42;12.23;;;;;;;9.27;92.87;101606.84;4904348;29;20056;-73
2021/03/09 11:25:17;;;;;;;15.27;10.38;;;;;;;9.04;93.59;101587.63;4916981;29;20399;-74
2021/03/09 11:28:05;;;;;;;21.60;12.25;;;;;;;9.32;92.29;101589.41;4918611;29;20044;-74
2021/03/09 11:30:51;;;;;;;21.58;12.13;;;;;;;9.36;92.28;101583.31;4917009;29;20123;-74
2021/03/09 11:33:37;;;;;;;19.80;10.70;;;;;;;9.91;90.20;101572.88;4917849;29;20024;-73
2021/03/09 11:36:23;;;;;;;20.73;11.80;;;;;;;8.94;90.67;101576.28;4903796;29;20032;-74
2021/03/09 11:39:09;;;;;;;24.15;12.93;;;;;;;8.63;93.53;101581.38;4917095;29;20131;-74
2021/03/09 11:41:55;;;;;;;21.67;12.35;;;;;;;8.63;96.47;101571.81;4916925;29;20111;-74
2021/03/09 11:44:41;;;;;;;21.65;12.30;;;;;;;9.10;93.51;101572.84;4916927;29;20031;-74
2021/03/09 11:47:27;;;;;;;25.92;12.40;;;;;;;9.94;89.89;101567.63;4916919;29;20457;-74
2021/03/09 11:50:13;;;;;;;24.55;11.63;;;;;;;9.74;88.85;101556.28;4916715;29;20029;-73
2021/03/09 11:52:59;;;;;;;21.88;12.75;;;;;;;10.35;86.71;101567.56;4917503;29;20091;-74
2021/03/09 11:55:45;;;;;;;19.17;11.40;;;;;;;9.59;87.66;101556.31;4917056;29;20103;-74
2021/03/09 11:58:31;;;;;;;21.50;12.35;;;;;;;10.05;88.53;101565.03;4917614;29;20032;-75
2021/03/09 12:01:18;;;;;;;23.95;12.40;;;;;;;10.42;87.89;101558.81;4917031;29;20079;-73
2021/03/09 12:04:04;;;;;;;18.83;11.77;;;;;;;10.26;86.71;101548.38;4920987;29;20099;-74
2021/03/09 12:06:50;;;;;;;17.60;10.77;;;;;;;10.38;86.88;101545.72;4920259;29;20024;-74
2021/03/09 12:09:36;;;;;;;18.95;11.57;;;;;;;10.44;85.49;101536.09;4921122;29;20099;-74
2021/03/09 12:12:22;;;;;;;17.70;10.93;;;;;;;9.97;86.83;101538.81;4920435;29;20095;-73
2021/03/09 12:15:08;;;;;;;23.90;13.05;;;;;;;9.65;86.89;101532.75;4921467;29;20027;-74
2021/03/09 12:17:54;;;;;;;20.85;12.57;;;;;;;9.22;90.45;101535.38;4907731;29;20032;-74
2021/03/09 12:20:40;;;;;;;35.15;15.07;;;;;;;9.49;91.01;101531.03;4907603;29;20024;-74
2021/03/09 12:23:26;;;;;;;32.00;14.45;;;;;;;10.05;89.21;101537.09;4907555;29;20062;-74
2021/03/09 12:26:12;;;;;;;20.02;12.10;;;;;;;10.17;88.72;101532.72;4921670;29;20024;-73
2021/03/09 12:28:58;;;;;;;20.48;12.00;;;;;;;10.44;87.53;101530.00;4921628;29;20103;-74
2021/03/09 12:31:44;;;;;;;28.35;14.05;;;;;;;9.10;90.26;101530.13;4920431;29;20032;-74
2021/03/09 12:34:30;;;;;;;25.27;12.75;;;;;;;9.08;94.22;101524.00;4920632;29;20034;-74
2021/03/09 12:37:16;;;;;;;22.13;12.20;;;;;;;9.03;92.61;101521.41;4921578;29;20051;-74
2021/03/09 12:40:03;;;;;;;25.63;13.20;;;;;;;8.81;93.94;101517.00;4920891;29;20041;-74
2021/03/09 12:42:48;;;;;;;35.58;15.30;;;;;;;8.93;95.46;101519.63;4920690;29;20036;-74
2021/03/09 12:45:36;;;;;;;29.20;16.98;;;;;;;9.15;96.63;101510.97;4920132;29;20373;-74
2021/03/09 12:48:22;;;;;;;21.40;12.25;;;;;;;9.63;93.11;101512.69;4920332;29;20062;-74
2021/03/09 12:51:08;;;;;;;22.60;13.02;;;;;;;9.35;94.06;101509.25;4920458;29;20107;-74
2021/03/09 12:53:53;;;;;;;26.95;16.27;;;;;;;9.61;93.22;101511.84;4920261;29;20119;-74
2021/03/09 12:56:39;;;;;;;22.48;13.32;;;;;;;9.98;90.46;101506.53;4920382;29;20457;-74
2021/03/09 12:59:25;;;;;;;34.15;17.75;;;;;;;10.36;89.70;101501.19;4920646;29;20028;-74
2021/03/09 13:02:11;;;;;;;21.10;12.57;;;;;;;9.53;91.13;101504.00;4906647;29;20464;-73
2021/03/09 13:04:57;;;;;;;28.65;15.43;;;;;;;9.78;90.97;101502.22;4920865;29;20042;-73
2021/03/09 13:07:42;;;;;;;40.38;21.38;;;;;;;9.59;92.21;101501.38;4920553;29;20028;-74
2021/03/09 13:10:28;;;;;;;22.20;12.75;;;;;;;9.02;94.87;101506.63;4920243;29;20377;-75
2021/03/09 13:13:15;;;;;;;19.95;13.20;;;;;;;9.87;93.35;101503.09;4919130;29;20042;-75
2021/03/09 13:16:00;;;;;;;22.13;12.68;;;;;;;10.05;90.28;101503.06;4919030;29;20099;-73
2021/03/09 13:18:46;;;;;;;18.15;12.05;;;;;;;9.84;90.35;101497.84;4919682;29;20071;-75
2021/03/09 13:21:32;;;;;;;23.52;13.25;;;;;;;10.42;88.02;101495.94;4919718;29;20107;-73
2021/03/09 13:24:18;;;;;;;21.60;13.23;;;;;;;10.46;87.18;101495.06;4920461;29;20111;-73
2021/03/09 13:27:05;;;;;;;20.90;13.40;;;;;;;10.13;88.47;101496.94;4919376;29;20028;-74
2021/03/09 13:29:50;;;;;;;20.60;14.45;;;;;;;10.21;88.03;101484.69;4920208;29;20044;-73
2021/03/09 13:32:36;;;;;;;22.98;14.02;;;;;;;10.10;88.14;101487.34;4919572;29;20028;-74
2021/03/09 13:35:22;;;;;;;20.55;13.95;;;;;;;10.32;87.44;101478.50;4920032;29;20381;-74